Time;durP1;ratioP1;P1;durP2;ratioP2;P2;SDS_P1;SDS_P2;PMS_P1;PMS_P2;Temp;Humidity;BMP_temperature;BMP_pressure;BME280_temperature;BME280_humidity;BME280_pressure;Samples;Min_cycle;Max_cycle;Signal;HPM_P1;HPM_P2
2020/12/12 00:01:56;;;;;;;55.33;34.23;;;;;;;;;;4993765;28;20176;-85
2020/12/12 00:04:26;;;;;;;58.50;35.87;;;;;;;;;;4992832;28;20251;-84
2020/12/12 00:06:56;;;;;;;58.80;34.60;;;;;;;;;;4993627;28;20665;-85
2020/12/12 00:09:23;;;;;;;60.93;32.63;;;;;;;;;;4992354;28;20204;-85
2020/12/12 00:11:50;;;;;;;70.27;37.80;;;;;;;;;;4993824;28;20261;-86
2020/12/12 00:14:20;;;;;;;54.20;28.07;;;;;;;;;;4993614;28;20211;-86
2020/12/12 00:16:55;;;;;;;60.47;34.07;;;;;;;;;;4992447;28;20306;-86
2020/12/12 00:19:25;;;;;;;58.77;31.73;;;;;;;;;;4992294;28;20198;-85
2020/12/12 00:21:56;;;;;;;61.80;34.50;;;;;;;;;;4992218;28;20557;-86
2020/12/12 00:24:22;;;;;;;70.33;35.87;;;;;;;;;;4993509;28;20239;-86
2020/12/12 00:26:58;;;;;;;65.07;33.33;;;;;;;;;;4993803;28;20180;-86
2020/12/12 00:29:29;;;;;;;62.63;34.97;;;;;;;;;;4993390;28;20199;-86
2020/12/12 00:32:04;;;;;;;61.00;34.53;;;;;;;;;;4992201;28;20656;-85
2020/12/12 00:34:30;;;;;;;63.33;34.63;;;;;;;;;;4992172;28;20207;-85
2020/12/12 00:36:58;;;;;;;60.00;33.93;;;;;;;;;;4993709;28;20176;-85
2020/12/12 00:39:25;;;;;;;60.23;32.97;;;;;;;;;;4993164;28;20215;-85
2020/12/12 00:41:51;;;;;;;61.60;33.57;;;;;;;;;;4992124;28;20186;-85
2020/12/12 00:44:22;;;;;;;62.03;34.07;;;;;;;;;;4992143;28;20178;-85
2020/12/12 00:46:49;;;;;;;62.07;35.30;;;;;;;;;;4992472;28;20669;-85
2020/12/12 00:49:19;;;;;;;61.93;33.33;;;;;;;;;;4995763;28;20696;-85
2020/12/12 00:51:58;;;;;;;72.70;36.87;;;;;;;;;;4995735;28;20329;-85
2020/12/12 00:54:30;;;;;;;55.63;31.20;;;;;;;;;;4997243;28;20193;-85
2020/12/12 00:57:06;;;;;;;55.63;30.80;;;;;;;;;;4997075;28;20188;-84
2020/12/12 00:59:37;;;;;;;60.23;30.50;;;;;;;;;;4996858;28;20195;-85
2020/12/12 01:02:09;;;;;;;57.70;28.87;;;;;;;;;;4997225;28;20315;-85
2020/12/12 01:04:41;;;;;;;68.80;35.67;;;;;;;;;;4995486;28;20531;-84
2020/12/12 01:07:12;;;;;;;74.43;35.90;;;;;;;;;;4995545;28;20210;-84
2020/12/12 01:09:42;;;;;;;53.57;31.40;;;;;;;;;;4995440;28;20204;-85
2020/12/12 01:12:12;;;;;;;58.37;31.57;;;;;;;;;;4995454;28;20195;-86
2020/12/12 01:14:42;;;;;;;58.13;32.00;;;;;;;;;;4996699;28;20204;-86
2020/12/12 01:17:16;;;;;;;62.13;34.20;;;;;;;;;;4995492;28;20175;-85
2020/12/12 01:19:47;;;;;;;58.57;33.10;;;;;;;;;;4995922;28;20202;-86
2020/12/12 01:22:19;;;;;;;59.30;33.50;;;;;;;;;;4995400;28;20239;-86
2020/12/12 01:24:50;;;;;;;60.33;35.23;;;;;;;;;;4996576;28;20178;-85
2020/12/12 01:27:19;;;;;;;62.07;33.37;;;;;;;;;;4996347;28;20196;-85
2020/12/12 01:29:51;;;;;;;56.50;32.33;;;;;;;;;;4996167;28;20235;-85
2020/12/12 01:32:21;;;;;;;67.00;33.50;;;;;;;;;;4996355;28;20655;-85
2020/12/12 01:34:50;;;;;;;64.40;32.83;;;;;;;;;;4996135;28;20199;-85
2020/12/12 01:37:22;;;;;;;60.27;33.00;;;;;;;;;;4994889;28;20185;-85
2020/12/12 01:39:54;;;;;;;65.40;35.80;;;;;;;;;;4994787;28;20222;-85
2020/12/12 01:42:25;;;;;;;69.10;36.73;;;;;;;;;;4994784;28;20181;-85
2020/12/12 01:44:58;;;;;;;65.70;33.23;;;;;;;;;;4994760;28;20197;-85
2020/12/12 01:47:30;;;;;;;66.13;35.57;;;;;;;;;;4995098;28;20294;-85
2020/12/12 01:50:04;;;;;;;64.97;36.53;;;;;;;;;;4995005;28;20255;-85
2020/12/12 01:52:36;;;;;;;64.73;36.60;;;;;;;;;;4996052;28;20190;-85
2020/12/12 01:55:04;;;;;;;65.17;35.37;;;;;;;;;;4994746;28;20214;-85
2020/12/12 01:57:41;;;;;;;69.13;37.57;;;;;;;;;;4994665;28;20614;-85
2020/12/12 02:00:12;;;;;;;67.00;37.87;;;;;;;;;;4995151;28;20196;-85
2020/12/12 02:02:44;;;;;;;68.67;37.33;;;;;;;;;;4995958;28;20171;-85
2020/12/12 02:05:38;;;;;;;68.90;38.07;;;;;;;;;;4995744;28;20182;-85
2020/12/12 02:08:07;;;;;;;65.03;34.87;;;;;;;;;;4995337;28;20212;-85
2020/12/12 02:10:39;;;;;;;73.60;39.57;;;;;;;;;;4994344;28;20289;-85
2020/12/12 02:13:06;;;;;;;62.90;33.50;;;;;;;;;;4994111;28;20219;-85
2020/12/12 02:15:37;;;;;;;62.17;37.47;;;;;;;;;;4995487;28;20188;-85
2020/12/12 02:18:08;;;;;;;75.10;38.40;;;;;;;;;;4994202;28;20191;-85
2020/12/12 02:20:36;;;;;;;60.50;35.77;;;;;;;;;;4995345;28;20200;-85
2020/12/12 02:23:07;;;;;;;73.07;38.67;;;;;;;;;;4994101;28;20179;-85
2020/12/12 02:25:33;;;;;;;68.47;37.87;;;;;;;;;;4994075;28;20269;-85
2020/12/12 02:27:59;;;;;;;68.53;37.33;;;;;;;;;;4994113;28;20184;-85
2020/12/12 02:30:29;;;;;;;69.10;35.93;;;;;;;;;;4995145;28;20201;-85
2020/12/12 02:32:58;;;;;;;63.17;35.60;;;;;;;;;;4995055;28;20197;-85
2020/12/12 02:35:30;;;;;;;64.23;38.73;;;;;;;;;;4993939;28;20176;-85
2020/12/12 02:37:56;;;;;;;66.87;36.73;;;;;;;;;;4993765;28;20178;-85
2020/12/12 02:40:27;;;;;;;63.90;37.97;;;;;;;;;;4994995;28;20215;-85
2020/12/12 02:42:59;;;;;;;63.73;38.13;;;;;;;;;;4994966;28;20177;-85
2020/12/12 02:45:30;;;;;;;61.97;36.07;;;;;;;;;;4993793;28;20199;-85
2020/12/12 02:47:58;;;;;;;62.90;36.27;;;;;;;;;;4994901;28;20181;-85
2020/12/12 02:50:27;;;;;;;63.73;33.90;;;;;;;;;;4995293;28;20186;-85
2020/12/12 02:52:57;;;;;;;64.40;34.27;;;;;;;;;;4993610;28;20177;-84
2020/12/12 02:55:31;;;;;;;58.70;35.53;;;;;;;;;;4993505;28;20244;-85
2020/12/12 02:58:04;;;;;;;60.17;35.83;;;;;;;;;;4994779;28;20177;-85
2020/12/12 03:00:38;;;;;;;67.50;37.00;;;;;;;;;;4994738;28;20220;-85
2020/12/12 03:03:10;;;;;;;64.43;35.03;;;;;;;;;;4993421;28;20178;-85
2020/12/12 03:05:38;;;;;;;61.93;34.17;;;;;;;;;;4993368;28;20545;-85
2020/12/12 03:08:11;;;;;;;59.00;34.97;;;;;;;;;;4993261;28;20205;-85
2020/12/12 03:10:41;;;;;;;58.77;31.50;;;;;;;;;;4993764;28;20224;-85
2020/12/12 03:13:09;;;;;;;64.60;35.67;;;;;;;;;;4994428;28;20203;-85
2020/12/12 03:15:41;;;;;;;56.50;35.53;;;;;;;;;;4994417;28;20172;-85
2020/12/12 03:18:11;;;;;;;63.20;34.83;;;;;;;;;;4993109;28;20178;-85
2020/12/12 03:20:42;;;;;;;55.00;33.93;;;;;;;;;;4993064;28;20190;-85
2020/12/12 03:23:16;;;;;;;59.00;35.40;;;;;;;;;;4994312;28;20642;-85
2020/12/12 03:25:45;;;;;;;59.40;33.90;;;;;;;;;;4993853;28;20574;-85
2020/12/12 03:28:16;;;;;;;54.23;33.33;;;;;;;;;;4992977;28;20189;-85
2020/12/12 03:30:51;;;;;;;65.40;34.20;;;;;;;;;;4992803;28;20199;-85
2020/12/12 03:33:24;;;;;;;66.63;34.73;;;;;;;;;;4994060;28;20200;-85
2020/12/12 03:35:51;;;;;;;54.03;31.70;;;;;;;;;;4994604;28;20168;-85
2020/12/12 03:38:22;;;;;;;58.93;33.63;;;;;;;;;;4994369;28;20589;-85
2020/12/12 03:40:55;;;;;;;62.13;33.37;;;;;;;;;;4992630;28;20589;-85
2020/12/12 03:43:24;;;;;;;62.53;34.30;;;;;;;;;;4992629;28;20188;-85
2020/12/12 03:46:01;;;;;;;53.50;31.83;;;;;;;;;;4992732;28;20661;-85
2020/12/12 03:48:27;;;;;;;50.90;29.50;;;;;;;;;;4993945;28;20171;-85
2020/12/12 03:50:57;;;;;;;59.13;34.90;;;;;;;;;;4992481;28;20240;-85
2020/12/12 03:53:26;;;;;;;63.37;34.73;;;;;;;;;;4992606;28;20198;-85
2020/12/12 03:55:56;;;;;;;58.63;32.83;;;;;;;;;;4992466;28;20272;-85
2020/12/12 03:58:27;;;;;;;60.17;36.10;;;;;;;;;;4993741;28;20179;-85
2020/12/12 04:00:54;;;;;;;63.13;33.90;;;;;;;;;;4993605;28;20722;-85
2020/12/12 04:03:25;;;;;;;64.97;34.77;;;;;;;;;;4993753;28;20228;-85
2020/12/12 04:05:53;;;;;;;56.17;34.13;;;;;;;;;;4992398;28;20195;-85
2020/12/12 04:08:26;;;;;;;58.77;34.73;;;;;;;;;;4993687;28;20181;-85
2020/12/12 04:10:56;;;;;;;58.87;33.37;;;;;;;;;;4993815;28;20191;-85
2020/12/12 04:13:26;;;;;;;57.37;33.70;;;;;;;;;;4993479;28;20679;-85
2020/12/12 04:15:58;;;;;;;54.57;31.73;;;;;;;;;;4993597;28;20169;-84
2020/12/12 04:18:29;;;;;;;65.33;35.00;;;;;;;;;;4994331;28;20178;-85
2020/12/12 04:21:01;;;;;;;59.63;34.63;;;;;;;;;;4992170;28;20197;-85
2020/12/12 04:23:35;;;;;;;58.57;34.87;;;;;;;;;;4995045;28;20176;-85
2020/12/12 04:26:08;;;;;;;60.33;33.80;;;;;;;;;;4996383;28;20185;-85
2020/12/12 04:28:40;;;;;;;65.33;33.30;;;;;;;;;;4997746;28;20253;-85
2020/12/12 04:31:10;;;;;;;56.97;32.23;;;;;;;;;;4996169;28;20276;-85
2020/12/12 04:33:42;;;;;;;65.80;36.30;;;;;;;;;;4997321;28;20243;-85
2020/12/12 04:36:11;;;;;;;62.17;37.50;;;;;;;;;;4997327;28;20193;-85
2020/12/12 04:38:45;;;;;;;59.77;36.80;;;;;;;;;;4996071;28;20180;-85
2020/12/12 04:41:12;;;;;;;66.17;37.83;;;;;;;;;;4995986;28;20187;-85
2020/12/12 04:43:43;;;;;;;69.03;37.57;;;;;;;;;;4995993;28;20231;-85
2020/12/12 04:46:10;;;;;;;60.53;35.10;;;;;;;;;;4996049;28;20185;-85
2020/12/12 04:48:42;;;;;;;64.20;34.27;;;;;;;;;;4997123;28;20211;-85
2020/12/12 04:51:14;;;;;;;64.27;37.73;;;;;;;;;;4995828;28;20185;-85
2020/12/12 04:53:46;;;;;;;64.63;37.70;;;;;;;;;;4997035;28;20198;-85
2020/12/12 04:56:25;;;;;;;59.57;31.93;;;;;;;;;;4996961;28;20178;-85
2020/12/12 04:59:00;;;;;;;63.43;32.90;;;;;;;;;;4995583;28;20173;-85
2020/12/12 05:01:33;;;;;;;61.60;34.47;;;;;;;;;;4995576;28;20165;-85
2020/12/12 05:04:05;;;;;;;66.87;36.27;;;;;;;;;;4997190;28;20168;-84
2020/12/12 05:06:38;;;;;;;56.50;30.83;;;;;;;;;;4995527;28;20183;-85
2020/12/12 05:09:10;;;;;;;68.50;38.30;;;;;;;;;;4995397;28;20200;-85
2020/12/12 05:11:38;;;;;;;68.20;35.13;;;;;;;;;;4996760;28;20182;-85
2020/12/12 05:14:12;;;;;;;67.83;36.23;;;;;;;;;;4995306;28;20216;-85
2020/12/12 05:16:42;;;;;;;61.27;36.33;;;;;;;;;;4995336;28;20228;-85
2020/12/12 05:19:12;;;;;;;64.90;36.30;;;;;;;;;;4996499;28;20200;-85
2020/12/12 05:21:55;;;;;;;66.13;36.63;;;;;;;;;;4995310;28;20615;-84
2020/12/12 05:24:30;;;;;;;67.60;36.67;;;;;;;;;;4996550;28;20183;-84
2020/12/12 05:27:08;;;;;;;68.07;36.07;;;;;;;;;;4996404;28;20249;-84
2020/12/12 05:29:39;;;;;;;67.93;35.77;;;;;;;;;;4996313;28;20195;-85
2020/12/12 05:32:11;;;;;;;68.37;35.47;;;;;;;;;;4996537;28;20195;-85
2020/12/12 05:34:41;;;;;;;66.70;37.23;;;;;;;;;;4994766;28;20206;-84
2020/12/12 05:37:09;;;;;;;66.80;36.57;;;;;;;;;;4995041;28;20179;-85
2020/12/12 05:39:40;;;;;;;67.33;36.83;;;;;;;;;;5085880;23;20244;-86
2020/12/12 05:42:10;;;;;;;68.73;35.97;;;;;;;;;;4994985;28;20267;-87
2020/12/12 05:44:42;;;;;;;71.43;37.20;;;;;;;;;;4996234;28;20170;-87
2020/12/12 05:47:16;;;;;;;70.10;38.57;;;;;;;;;;4994940;28;20208;-87
2020/12/12 05:49:48;;;;;;;76.87;39.70;;;;;;;;;;4994895;28;20671;-87
2020/12/12 05:52:20;;;;;;;73.93;37.97;;;;;;;;;;4994963;28;20189;-86
2020/12/12 05:54:48;;;;;;;75.97;38.53;;;;;;;;;;4996191;28;20213;-87
2020/12/12 05:57:17;;;;;;;74.33;38.63;;;;;;;;;;4996057;28;20250;-87
2020/12/12 05:59:49;;;;;;;63.50;35.03;;;;;;;;;;4996004;28;20193;-87
2020/12/12 06:02:22;;;;;;;68.03;35.60;;;;;;;;;;4994769;28;20184;-87
2020/12/12 06:05:00;;;;;;;67.53;36.13;;;;;;;;;;4995981;28;20682;-87
2020/12/12 06:07:36;;;;;;;69.80;36.87;;;;;;;;;;4994541;28;20664;-86
2020/12/12 06:10:10;;;;;;;63.03;34.60;;;;;;;;;;4995947;28;20199;-87
2020/12/12 06:12:42;;;;;;;62.00;32.10;;;;;;;;;;4994650;28;20264;-87
2020/12/12 06:15:15;;;;;;;64.47;35.57;;;;;;;;;;4994430;28;20254;-86
2020/12/12 06:18:04;;;;;;;67.23;34.50;;;;;;;;;;4994480;28;20169;-87
2020/12/12 06:20:41;;;;;;;67.33;35.37;;;;;;;;;;4995548;28;20356;-86
2020/12/12 06:23:11;;;;;;;61.87;35.70;;;;;;;;;;4995493;28;20186;-87
2020/12/12 06:25:38;;;;;;;68.50;36.10;;;;;;;;;;4994537;28;20170;-86
2020/12/12 06:28:11;;;;;;;66.43;34.23;;;;;;;;;;4995593;28;20189;-87
2020/12/12 06:30:42;;;;;;;68.03;34.07;;;;;;;;;;4995636;28;20589;-86
2020/12/12 06:33:12;;;;;;;71.60;35.20;;;;;;;;;;4995332;28;20206;-87
2020/12/12 06:35:45;;;;;;;70.17;34.97;;;;;;;;;;4994232;28;20181;-87
2020/12/12 06:38:24;;;;;;;68.50;35.30;;;;;;;;;;4995652;28;20156;-87
2020/12/12 06:40:57;;;;;;;73.37;36.27;;;;;;;;;;4993854;28;20208;-86
2020/12/12 06:43:32;;;;;;;68.27;37.20;;;;;;;;;;4994209;28;20592;-86
2020/12/12 06:46:09;;;;;;;71.33;36.10;;;;;;;;;;4993893;28;20187;-87
2020/12/12 06:48:40;;;;;;;69.93;37.77;;;;;;;;;;4993870;28;20182;-87
2020/12/12 06:51:12;;;;;;;64.37;35.87;;;;;;;;;;4993590;28;20196;-87
2020/12/12 06:53:39;;;;;;;67.73;37.40;;;;;;;;;;4993645;28;20744;-86
2020/12/12 06:56:12;;;;;;;72.87;38.30;;;;;;;;;;4993662;28;20193;-87
2020/12/12 06:58:39;;;;;;;54.60;29.13;;;;;;;;;;4993532;28;20178;-87
2020/12/12 07:01:45;;;;;;;73.70;38.47;;;;;;;;;;4993675;28;20205;-87
2020/12/12 07:04:25;;;;;;;62.53;35.20;;;;;;;;;;4935235;29;20195;-86
2020/12/12 07:06:56;;;;;;;58.10;33.50;;;;;;;;;;4988849;28;20183;-86
2020/12/12 07:09:27;;;;;;;61.27;34.73;;;;;;;;;;4993384;28;20176;-87
2020/12/12 07:11:58;;;;;;;67.90;38.90;;;;;;;;;;4993295;28;20202;-86
2020/12/12 07:14:36;;;;;;;66.30;38.17;;;;;;;;;;4993397;28;20233;-87
2020/12/12 07:17:08;;;;;;;77.40;41.10;;;;;;;;;;4994903;28;20165;-87
2020/12/12 07:19:39;;;;;;;60.43;37.10;;;;;;;;;;4994425;28;20206;-87
2020/12/12 07:22:14;;;;;;;71.27;38.73;;;;;;;;;;4993318;28;20175;-87
2020/12/12 07:24:41;;;;;;;65.00;36.03;;;;;;;;;;4993207;28;20659;-87
2020/12/12 07:27:12;;;;;;;73.60;39.33;;;;;;;;;;4994450;28;20175;-87
2020/12/12 07:29:46;;;;;;;67.33;37.87;;;;;;;;;;4993143;28;20207;-87
2020/12/12 07:32:17;;;;;;;67.10;38.80;;;;;;;;;;4993450;28;20166;-87
2020/12/12 07:34:48;;;;;;;66.03;36.67;;;;;;;;;;4993336;28;20210;-86
2020/12/12 07:37:19;;;;;;;63.90;37.33;;;;;;;;;;4994209;28;20176;-87
2020/12/12 07:39:52;;;;;;;71.80;38.53;;;;;;;;;;4992920;28;20208;-86
2020/12/12 07:42:25;;;;;;;66.63;37.37;;;;;;;;;;4992807;28;20237;-86
2020/12/12 07:47:42;;;;;;;69.97;39.50;;;;;;;;;;4994555;28;20167;-87
2020/12/12 07:50:15;;;;;;;73.73;39.90;;;;;;;;;;4993914;28;20678;-87
2020/12/12 07:52:46;;;;;;;67.93;40.87;;;;;;;;;;4992779;28;20178;-86
2020/12/12 07:55:23;;;;;;;75.93;39.47;;;;;;;;;;4992726;28;20253;-87
2020/12/12 07:57:56;;;;;;;71.37;41.27;;;;;;;;;;4993790;28;20153;-87
2020/12/12 08:00:29;;;;;;;73.90;41.03;;;;;;;;;;4994070;28;20190;-86
2020/12/12 08:03:00;;;;;;;65.90;38.10;;;;;;;;;;4994310;28;20193;-87
2020/12/12 08:05:29;;;;;;;75.53;42.20;;;;;;;;;;4993982;28;20177;-86
2020/12/12 08:08:01;;;;;;;80.97;40.23;;;;;;;;;;4993795;28;20179;-87
2020/12/12 08:10:34;;;;;;;75.77;41.13;;;;;;;;;;4992705;28;20278;-87
2020/12/12 08:13:09;;;;;;;66.37;39.57;;;;;;;;;;4992825;28;20221;-86
2020/12/12 08:15:47;;;;;;;71.20;40.80;;;;;;;;;;4992512;28;20179;-87
2020/12/12 08:18:17;;;;;;;66.77;38.67;;;;;;;;;;4992594;28;20181;-87
2020/12/12 08:20:50;;;;;;;72.67;39.77;;;;;;;;;;4993698;28;20573;-87
2020/12/12 08:23:25;;;;;;;67.77;37.30;;;;;;;;;;4993321;28;20184;-86
2020/12/12 08:25:51;;;;;;;70.33;40.00;;;;;;;;;;4992488;28;20673;-86
2020/12/12 08:28:24;;;;;;;67.67;40.37;;;;;;;;;;4992456;28;20217;-87
2020/12/12 08:30:58;;;;;;;70.53;38.47;;;;;;;;;;4992425;28;20286;-87
2020/12/12 08:33:29;;;;;;;73.30;41.10;;;;;;;;;;4992330;28;20207;-87
2020/12/12 08:36:12;;;;;;;68.77;40.40;;;;;;;;;;4994073;28;20638;-87
2020/12/12 08:38:40;;;;;;;88.70;43.60;;;;;;;;;;4993569;28;20728;-87
2020/12/12 08:41:16;;;;;;;74.93;39.27;;;;;;;;;;4992045;28;20215;-87
2020/12/12 08:43:46;;;;;;;75.40;40.87;;;;;;;;;;4993444;28;20189;-87
2020/12/12 08:46:19;;;;;;;78.87;39.97;;;;;;;;;;4992207;28;20180;-87
2020/12/12 08:48:50;;;;;;;72.70;41.00;;;;;;;;;;4993973;28;20232;-87
2020/12/12 08:51:31;;;;;;;76.87;40.20;;;;;;;;;;4992567;28;20204;-87
2020/12/12 08:54:04;;;;;;;85.17;42.67;;;;;;;;;;4993310;28;20692;-86
2020/12/12 08:56:40;;;;;;;79.10;42.30;;;;;;;;;;4993796;28;20644;-86
2020/12/12 08:59:22;;;;;;;82.07;43.23;;;;;;;;;;4992125;28;20174;-87
2020/12/12 09:01:53;;;;;;;78.30;42.57;;;;;;;;;;4993604;28;20619;-87
2020/12/12 09:04:20;;;;;;;74.10;41.70;;;;;;;;;;4993377;28;20175;-87
2020/12/12 09:06:52;;;;;;;79.53;43.43;;;;;;;;;;4993081;28;20202;-87
2020/12/12 09:09:35;;;;;;;79.00;43.83;;;;;;;;;;4994048;28;20172;-87
2020/12/12 09:12:07;;;;;;;77.03;44.10;;;;;;;;;;4995560;28;20178;-87
2020/12/12 09:14:41;;;;;;;79.07;42.87;;;;;;;;;;4995606;28;20205;-87
2020/12/12 09:17:17;;;;;;;79.70;41.73;;;;;;;;;;4995647;28;20254;-87
2020/12/12 09:19:48;;;;;;;88.00;44.73;;;;;;;;;;4996982;28;20192;-86
2020/12/12 09:22:26;;;;;;;78.50;45.30;;;;;;;;;;4995503;28;20663;-87
2020/12/12 09:24:57;;;;;;;81.77;44.60;;;;;;;;;;4996961;28;20172;-87
2020/12/12 09:27:28;;;;;;;72.40;45.20;;;;;;;;;;4996628;28;20179;-85
2020/12/12 09:30:01;;;;;;;81.03;45.20;;;;;;;;;;4996725;28;20244;-85
2020/12/12 09:32:31;;;;;;;76.10;43.80;;;;;;;;;;4995686;28;20261;-85
2020/12/12 09:35:05;;;;;;;88.37;48.40;;;;;;;;;;4996501;28;20336;-85
2020/12/12 09:37:33;;;;;;;77.30;45.20;;;;;;;;;;4995263;28;20177;-86
2020/12/12 09:40:03;;;;;;;79.73;45.17;;;;;;;;;;4995070;28;20281;-87
2020/12/12 09:42:35;;;;;;;75.50;44.13;;;;;;;;;;4995635;28;20253;-87
2020/12/12 09:45:01;;;;;;;76.70;46.50;;;;;;;;;;4995145;28;20183;-87
2020/12/12 09:47:35;;;;;;;78.97;47.97;;;;;;;;;;4996166;28;20669;-86
2020/12/12 09:50:05;;;;;;;76.93;47.07;;;;;;;;;;4996315;28;20197;-87
2020/12/12 09:52:31;;;;;;;83.23;47.40;;;;;;;;;;4996302;28;20164;-87
2020/12/12 09:55:03;;;;;;;74.73;45.17;;;;;;;;;;4996326;28;20201;-87
2020/12/12 09:57:35;;;;;;;83.23;46.90;;;;;;;;;;4996251;28;20242;-87
2020/12/12 10:00:01;;;;;;;82.37;47.53;;;;;;;;;;4995248;28;20197;-87
2020/12/12 10:02:34;;;;;;;79.70;47.17;;;;;;;;;;4995881;28;20214;-87
2020/12/12 10:05:04;;;;;;;75.43;47.47;;;;;;;;;;4996518;28;20189;-87
2020/12/12 10:07:39;;;;;;;83.17;48.50;;;;;;;;;;4994566;28;20179;-88
2020/12/12 10:10:06;;;;;;;96.73;52.73;;;;;;;;;;4996074;28;20199;-87
2020/12/12 10:12:36;;;;;;;89.57;51.07;;;;;;;;;;4994708;28;20184;-87
2020/12/12 10:15:09;;;;;;;95.53;51.80;;;;;;;;;;4995699;28;20229;-87
2020/12/12 10:17:41;;;;;;;92.07;51.60;;;;;;;;;;4994925;28;20641;-88
2020/12/12 10:20:11;;;;;;;84.73;51.80;;;;;;;;;;4995046;28;20194;-87
2020/12/12 10:22:42;;;;;;;85.43;47.03;;;;;;;;;;4994547;28;20543;-88
2020/12/12 10:25:12;;;;;;;89.30;48.03;;;;;;;;;;4994302;28;20244;-88
2020/12/12 10:27:44;;;;;;;95.33;51.93;;;;;;;;;;4994312;28;20187;-88
2020/12/12 10:30:17;;;;;;;78.70;46.37;;;;;;;;;;4995439;28;20571;-88
2020/12/12 10:32:49;;;;;;;79.87;45.90;;;;;;;;;;4995197;28;20208;-88
2020/12/12 10:35:25;;;;;;;78.90;47.13;;;;;;;;;;4995570;28;20207;-88
2020/12/12 10:37:59;;;;;;;87.57;48.60;;;;;;;;;;4995329;28;20173;-87
2020/12/12 10:43:04;;;;;;;82.13;46.87;;;;;;;;;;4995455;28;20152;-88
2020/12/12 10:45:37;;;;;;;78.03;47.43;;;;;;;;;;4994092;28;20175;-87
2020/12/12 10:48:03;;;;;;;78.83;47.73;;;;;;;;;;4994070;28;20170;-88
2020/12/12 10:50:34;;;;;;;76.03;46.40;;;;;;;;;;4993777;28;20677;-88
2020/12/12 10:53:02;;;;;;;83.80;48.80;;;;;;;;;;4993814;28;20170;-88
2020/12/12 10:55:31;;;;;;;86.47;51.50;;;;;;;;;;4995244;28;20169;-88
2020/12/12 10:58:00;;;;;;;85.03;50.93;;;;;;;;;;4993644;28;20646;-88
2020/12/12 11:00:29;;;;;;;90.03;51.33;;;;;;;;;;4993682;28;20203;-88
2020/12/12 11:02:59;;;;;;;85.07;49.50;;;;;;;;;;4994627;28;20606;-88
2020/12/12 11:05:27;;;;;;;83.63;51.83;;;;;;;;;;4994720;28;20224;-88
2020/12/12 11:07:53;;;;;;;83.97;48.53;;;;;;;;;;4993446;28;20178;-87
2020/12/12 11:10:20;;;;;;;81.43;49.13;;;;;;;;;;4993352;28;20201;-87
2020/12/12 11:12:46;;;;;;;81.70;48.73;;;;;;;;;;4993388;28;20180;-88
2020/12/12 11:15:13;;;;;;;73.90;44.77;;;;;;;;;;4993473;28;20258;-87
2020/12/12 11:17:39;;;;;;;79.50;48.87;;;;;;;;;;4994567;28;20173;-88
2020/12/12 11:20:06;;;;;;;81.17;44.77;;;;;;;;;;4994462;28;20193;-88
2020/12/12 11:22:32;;;;;;;77.47;46.77;;;;;;;;;;4994552;28;20169;-88
2020/12/12 11:24:59;;;;;;;84.33;46.53;;;;;;;;;;4993081;28;20197;-88
2020/12/12 11:27:25;;;;;;;76.47;44.37;;;;;;;;;;4993073;28;20272;-87
2020/12/12 11:29:54;;;;;;;73.60;44.80;;;;;;;;;;4994548;28;20190;-88
2020/12/12 11:32:22;;;;;;;68.73;41.77;;;;;;;;;;4992605;28;20176;-87
2020/12/12 11:34:54;;;;;;;74.13;44.23;;;;;;;;;;4994040;28;20212;-87
2020/12/12 11:37:33;;;;;;;78.03;45.50;;;;;;;;;;4993144;28;20173;-87
2020/12/12 11:48:02;;;;;;;74.67;43.47;;;;;;;;;;4994709;28;20176;-87
2020/12/12 11:50:29;;;;;;;71.43;42.07;;;;;;;;;;4992732;28;20200;-87
2020/12/12 11:52:56;;;;;;;68.73;39.87;;;;;;;;;;4994083;28;20177;-87
2020/12/12 11:55:24;;;;;;;68.60;41.33;;;;;;;;;;4994196;28;20210;-87
2020/12/12 11:57:51;;;;;;;68.50;41.40;;;;;;;;;;4993964;28;20170;-87
2020/12/12 12:00:18;;;;;;;68.77;39.63;;;;;;;;;;4994028;28;20204;-87
2020/12/12 12:02:44;;;;;;;63.90;40.00;;;;;;;;;;4992746;28;20266;-87
2020/12/12 12:05:11;;;;;;;64.27;39.80;;;;;;;;;;4993164;28;20615;-87
2020/12/12 12:07:56;;;;;;;67.77;41.10;;;;;;;;;;4993831;28;20174;-87
2020/12/12 12:12:49;;;;;;;67.47;41.03;;;;;;;;;;4993975;28;20182;-87
2020/12/12 12:15:16;;;;;;;72.57;42.43;;;;;;;;;;4992511;28;20268;-87
2020/12/12 12:17:42;;;;;;;72.67;40.40;;;;;;;;;;4993854;28;20251;-87
2020/12/12 12:20:09;;;;;;;68.70;42.30;;;;;;;;;;4992753;28;20201;-87
2020/12/12 12:22:42;;;;;;;68.63;41.03;;;;;;;;;;4993840;28;20202;-87
2020/12/12 12:25:09;;;;;;;68.80;39.60;;;;;;;;;;4992465;28;20662;-87
2020/12/12 12:27:41;;;;;;;71.83;41.80;;;;;;;;;;4992392;28;20214;-87
2020/12/12 12:30:14;;;;;;;65.27;40.90;;;;;;;;;;4992768;28;20590;-87
2020/12/12 12:32:46;;;;;;;69.23;41.73;;;;;;;;;;4992449;28;20813;-87
2020/12/12 12:35:19;;;;;;;66.47;40.00;;;;;;;;;;4994138;28;20230;-87
2020/12/12 12:37:55;;;;;;;76.77;41.23;;;;;;;;;;4992281;28;20533;-87
2020/12/12 12:40:21;;;;;;;70.67;42.93;;;;;;;;;;4992529;28;20240;-87
2020/12/12 12:42:52;;;;;;;68.93;41.40;;;;;;;;;;4993778;28;20639;-87
2020/12/12 12:45:20;;;;;;;66.50;40.73;;;;;;;;;;4996141;28;20234;-87
2020/12/12 12:47:50;;;;;;;71.90;40.80;;;;;;;;;;4996186;28;20212;-87
2020/12/12 12:50:33;;;;;;;72.73;40.63;;;;;;;;;;4996830;28;20563;-88
2020/12/12 12:53:07;;;;;;;68.37;40.10;;;;;;;;;;4996056;28;20180;-88
2020/12/12 12:55:38;;;;;;;67.43;41.20;;;;;;;;;;4997524;28;20181;-88
2020/12/12 12:58:10;;;;;;;71.13;41.73;;;;;;;;;;4995912;28;20193;-88
2020/12/12 13:00:42;;;;;;;62.90;40.10;;;;;;;;;;4996980;28;20194;-88
2020/12/12 13:03:16;;;;;;;65.97;39.70;;;;;;;;;;4995872;28;20229;-88
2020/12/12 13:05:47;;;;;;;72.57;41.30;;;;;;;;;;4995697;28;20181;-88
2020/12/12 13:08:14;;;;;;;67.20;42.70;;;;;;;;;;4997074;28;20626;-88
2020/12/12 13:10:45;;;;;;;66.83;41.07;;;;;;;;;;4996039;28;20198;-87
2020/12/12 13:13:20;;;;;;;61.00;38.83;;;;;;;;;;4995586;28;20178;-87
2020/12/12 13:15:56;;;;;;;65.77;38.87;;;;;;;;;;4997140;28;20161;-87
2020/12/12 13:18:29;;;;;;;71.83;40.97;;;;;;;;;;4996326;28;20249;-88
2020/12/12 13:23:34;;;;;;;67.90;39.47;;;;;;;;;;4996684;28;20529;-87
2020/12/12 13:26:11;;;;;;;71.27;39.93;;;;;;;;;;4997028;28;20170;-88
2020/12/12 13:31:36;;;;;;;64.07;38.87;;;;;;;;;;4996551;28;20209;-86
2020/12/12 13:34:08;;;;;;;60.10;38.53;;;;;;;;;;4996490;28;20189;-88
2020/12/12 13:36:39;;;;;;;61.47;38.93;;;;;;;;;;4996684;28;20249;-87
2020/12/12 13:39:12;;;;;;;66.73;39.63;;;;;;;;;;4996514;28;20538;-87
2020/12/12 13:41:43;;;;;;;62.70;37.07;;;;;;;;;;4996286;28;20275;-87
2020/12/12 13:44:12;;;;;;;57.13;38.07;;;;;;;;;;4996313;28;20188;-87
2020/12/12 13:46:43;;;;;;;64.13;39.77;;;;;;;;;;4995344;28;20182;-87
2020/12/12 13:49:15;;;;;;;60.10;40.47;;;;;;;;;;4996143;28;20189;-88
2020/12/12 13:51:47;;;;;;;61.80;38.20;;;;;;;;;;4996325;28;20178;-87
2020/12/12 13:54:19;;;;;;;64.97;39.17;;;;;;;;;;4994946;28;20744;-88
2020/12/12 13:56:54;;;;;;;60.73;40.50;;;;;;;;;;4994258;28;20682;-87
2020/12/12 13:59:29;;;;;;;65.30;41.73;;;;;;;;;;4996082;28;20168;-87
2020/12/12 14:01:56;;;;;;;66.50;39.43;;;;;;;;;;4994810;28;20650;-87
2020/12/12 14:04:24;;;;;;;61.87;38.33;;;;;;;;;;4994765;28;20221;-87
2020/12/12 14:06:59;;;;;;;61.37;37.93;;;;;;;;;;4994673;28;20549;-87
2020/12/12 14:23:49;;;;;;;61.40;38.70;;;;;;;;;;4954872;29;20210;-87
2020/12/12 14:26:22;;;;;;;59.67;39.40;;;;;;;;;;4973747;28;20193;-87
2020/12/12 14:28:53;;;;;;;66.28;46.92;;;;;;;;;;4994474;28;20857;-87
2020/12/12 14:31:28;;;;;;;64.90;45.63;;;;;;;;;;4994230;28;20277;-86
2020/12/12 14:33:56;;;;;;;60.13;42.10;;;;;;;;;;4993849;28;20228;-87
2020/12/12 14:36:27;;;;;;;63.83;44.00;;;;;;;;;;4993727;28;20194;-87
2020/12/12 14:38:57;;;;;;;60.33;41.67;;;;;;;;;;4994135;28;20574;-88
2020/12/12 14:41:25;;;;;;;56.80;39.73;;;;;;;;;;4994329;28;20224;-87
2020/12/12 14:43:52;;;;;;;63.60;41.23;;;;;;;;;;4995291;28;20253;-87
2020/12/12 14:46:19;;;;;;;58.27;41.60;;;;;;;;;;4994023;28;20698;-87
2020/12/12 14:48:46;;;;;;;66.83;42.87;;;;;;;;;;4993879;28;20610;-87
2020/12/12 14:51:12;;;;;;;62.67;42.10;;;;;;;;;;4993875;28;20226;-87
2020/12/12 14:53:38;;;;;;;63.63;40.90;;;;;;;;;;4994944;28;20198;-87
2020/12/12 14:56:06;;;;;;;60.63;41.00;;;;;;;;;;4993782;28;20166;-87
2020/12/12 14:58:35;;;;;;;63.53;40.77;;;;;;;;;;4993790;28;20544;-87
2020/12/12 15:01:01;;;;;;;70.37;41.77;;;;;;;;;;4993649;28;20194;-87
2020/12/12 15:03:28;;;;;;;71.40;44.60;;;;;;;;;;4993691;28;20178;-87
2020/12/12 15:05:54;;;;;;;61.13;40.90;;;;;;;;;;4993654;28;20554;-87
2020/12/12 15:08:20;;;;;;;64.57;42.80;;;;;;;;;;4993499;28;20236;-87
2020/12/12 15:10:48;;;;;;;70.80;41.47;;;;;;;;;;4993455;28;20202;-87
2020/12/12 15:13:14;;;;;;;69.60;42.77;;;;;;;;;;4994673;28;20174;-87
2020/12/12 15:15:40;;;;;;;67.30;44.33;;;;;;;;;;4993455;28;20186;-87